sensor_id;sensor_type;location;lat;lon;timestamp;P1;durP1;ratioP1;P2;durP2;ratioP2
65328;SDS011;51941;52.210;5.158;2023-02-07T00:00:45;10.38;;;4.70;;
65328;SDS011;51941;52.210;5.158;2023-02-07T00:03:12;16.48;;;5.00;;
65328;SDS011;51941;52.210;5.158;2023-02-07T00:05:39;8.07;;;4.53;;
65328;SDS011;51941;52.210;5.158;2023-02-07T00:08:06;11.73;;;4.75;;
65328;SDS011;51941;52.210;5.158;2023-02-07T00:10:33;10.82;;;4.47;;
65328;SDS011;51941;52.210;5.158;2023-02-07T00:13:00;10.48;;;4.45;;
65328;SDS011;51941;52.210;5.158;2023-02-07T00:15:28;12.32;;;4.70;;
65328;SDS011;51941;52.210;5.158;2023-02-07T00:17:55;8.55;;;4.50;;
65328;SDS011;51941;52.210;5.158;2023-02-07T00:20:22;10.82;;;5.07;;
65328;SDS011;51941;52.210;5.158;2023-02-07T00:22:49;8.43;;;4.80;;
65328;SDS011;51941;52.210;5.158;2023-02-07T00:25:16;12.05;;;4.80;;
65328;SDS011;51941;52.210;5.158;2023-02-07T00:27:43;8.40;;;4.47;;
65328;SDS011;51941;52.210;5.158;2023-02-07T00:30:10;8.57;;;3.97;;
65328;SDS011;51941;52.210;5.158;2023-02-07T00:32:39;7.45;;;4.22;;
65328;SDS011;51941;52.210;5.158;2023-02-07T00:35:06;7.03;;;4.20;;
65328;SDS011;51941;52.210;5.158;2023-02-07T00:37:33;9.80;;;4.32;;
65328;SDS011;51941;52.210;5.158;2023-02-07T00:40:02;10.23;;;4.45;;
65328;SDS011;51941;52.210;5.158;2023-02-07T00:42:29;8.95;;;4.13;;
65328;SDS011;51941;52.210;5.158;2023-02-07T00:44:56;8.13;;;4.55;;
65328;SDS011;51941;52.210;5.158;2023-02-07T00:47:23;8.95;;;3.80;;
65328;SDS011;51941;52.210;5.158;2023-02-07T00:49:52;6.28;;;3.70;;
65328;SDS011;51941;52.210;5.158;2023-02-07T00:52:18;12.65;;;5.80;;
65328;SDS011;51941;52.210;5.158;2023-02-07T00:54:45;8.50;;;5.18;;
65328;SDS011;51941;52.210;5.158;2023-02-07T00:57:12;13.48;;;5.18;;
65328;SDS011;51941;52.210;5.158;2023-02-07T00:59:39;10.52;;;5.40;;
65328;SDS011;51941;52.210;5.158;2023-02-07T01:02:06;9.95;;;4.88;;
65328;SDS011;51941;52.210;5.158;2023-02-07T01:04:33;11.55;;;5.60;;
65328;SDS011;51941;52.210;5.158;2023-02-07T01:07:01;10.30;;;5.55;;
65328;SDS011;51941;52.210;5.158;2023-02-07T01:09:28;9.90;;;5.32;;
65328;SDS011;51941;52.210;5.158;2023-02-07T01:11:55;12.00;;;6.35;;
65328;SDS011;51941;52.210;5.158;2023-02-07T01:14:23;15.20;;;6.95;;
65328;SDS011;51941;52.210;5.158;2023-02-07T01:16:50;10.88;;;5.75;;
65328;SDS011;51941;52.210;5.158;2023-02-07T01:19:17;14.63;;;7.28;;
65328;SDS011;51941;52.210;5.158;2023-02-07T01:21:44;12.68;;;6.70;;
65328;SDS011;51941;52.210;5.158;2023-02-07T01:24:12;12.98;;;6.95;;
65328;SDS011;51941;52.210;5.158;2023-02-07T01:26:39;9.43;;;5.63;;
65328;SDS011;51941;52.210;5.158;2023-02-07T01:29:06;13.00;;;5.85;;
65328;SDS011;51941;52.210;5.158;2023-02-07T01:31:34;10.65;;;5.85;;
65328;SDS011;51941;52.210;5.158;2023-02-07T01:34:01;8.75;;;5.30;;
65328;SDS011;51941;52.210;5.158;2023-02-07T01:36:28;11.20;;;5.35;;
65328;SDS011;51941;52.210;5.158;2023-02-07T01:38:55;11.63;;;5.13;;
65328;SDS011;51941;52.210;5.158;2023-02-07T01:41:25;13.75;;;6.93;;
65328;SDS011;51941;52.210;5.158;2023-02-07T01:43:54;10.48;;;5.50;;
65328;SDS011;51941;52.210;5.158;2023-02-07T01:46:23;8.93;;;6.00;;
65328;SDS011;51941;52.210;5.158;2023-02-07T01:48:50;9.13;;;5.30;;
65328;SDS011;51941;52.210;5.158;2023-02-07T01:51:19;8.37;;;4.70;;
65328;SDS011;51941;52.210;5.158;2023-02-07T01:53:48;12.43;;;6.13;;
65328;SDS011;51941;52.210;5.158;2023-02-07T01:56:16;9.18;;;5.47;;
65328;SDS011;51941;52.210;5.158;2023-02-07T01:58:45;10.18;;;4.90;;
65328;SDS011;51941;52.210;5.158;2023-02-07T02:01:13;12.95;;;5.72;;
65328;SDS011;51941;52.210;5.158;2023-02-07T02:03:43;11.25;;;5.85;;
65328;SDS011;51941;52.210;5.158;2023-02-07T02:06:14;14.52;;;6.75;;
65328;SDS011;51941;52.210;5.158;2023-02-07T02:08:42;8.43;;;6.25;;
65328;SDS011;51941;52.210;5.158;2023-02-07T02:11:13;16.60;;;7.43;;
65328;SDS011;51941;52.210;5.158;2023-02-07T02:13:58;9.65;;;5.97;;
65328;SDS011;51941;52.210;5.158;2023-02-07T02:16:33;10.90;;;6.30;;
65328;SDS011;51941;52.210;5.158;2023-02-07T02:19:22;12.27;;;6.05;;
65328;SDS011;51941;52.210;5.158;2023-02-07T02:22:23;16.70;;;6.13;;
65328;SDS011;51941;52.210;5.158;2023-02-07T02:25:15;14.95;;;7.00;;
65328;SDS011;51941;52.210;5.158;2023-02-07T02:31:03;10.70;;;5.75;;
65328;SDS011;51941;52.210;5.158;2023-02-07T02:33:48;11.65;;;5.95;;
65328;SDS011;51941;52.210;5.158;2023-02-07T02:36:23;15.15;;;6.63;;
65328;SDS011;51941;52.210;5.158;2023-02-07T02:38:59;10.63;;;6.03;;
65328;SDS011;51941;52.210;5.158;2023-02-07T02:41:36;13.65;;;6.00;;
65328;SDS011;51941;52.210;5.158;2023-02-07T02:44:07;10.23;;;6.13;;
65328;SDS011;51941;52.210;5.158;2023-02-07T02:46:39;14.57;;;6.13;;
65328;SDS011;51941;52.210;5.158;2023-02-07T02:49:09;12.50;;;6.18;;
65328;SDS011;51941;52.210;5.158;2023-02-07T02:51:38;12.55;;;6.25;;
65328;SDS011;51941;52.210;5.158;2023-02-07T02:56:55;8.40;;;4.82;;
65328;SDS011;51941;52.210;5.158;2023-02-07T02:59:36;9.77;;;5.17;;
65328;SDS011;51941;52.210;5.158;2023-02-07T03:02:16;11.50;;;5.03;;
65328;SDS011;51941;52.210;5.158;2023-02-07T03:04:58;9.95;;;5.60;;
65328;SDS011;51941;52.210;5.158;2023-02-07T03:07:40;8.23;;;4.75;;
65328;SDS011;51941;52.210;5.158;2023-02-07T03:10:15;9.80;;;5.30;;
65328;SDS011;51941;52.210;5.158;2023-02-07T03:12:50;9.13;;;5.32;;
65328;SDS011;51941;52.210;5.158;2023-02-07T03:15:23;11.77;;;5.75;;
65328;SDS011;51941;52.210;5.158;2023-02-07T03:17:58;11.00;;;5.85;;
65328;SDS011;51941;52.210;5.158;2023-02-07T03:20:31;10.52;;;5.07;;
65328;SDS011;51941;52.210;5.158;2023-02-07T03:23:01;11.48;;;5.30;;
65328;SDS011;51941;52.210;5.158;2023-02-07T03:25:32;7.38;;;4.75;;
65328;SDS011;51941;52.210;5.158;2023-02-07T03:27:59;9.30;;;4.72;;
65328;SDS011;51941;52.210;5.158;2023-02-07T03:30:29;15.30;;;7.00;;
65328;SDS011;51941;52.210;5.158;2023-02-07T03:33:00;10.70;;;6.40;;
65328;SDS011;51941;52.210;5.158;2023-02-07T03:35:38;15.50;;;7.05;;
65328;SDS011;51941;52.210;5.158;2023-02-07T03:38:09;17.33;;;7.05;;
65328;SDS011;51941;52.210;5.158;2023-02-07T03:40:37;10.52;;;6.35;;
65328;SDS011;51941;52.210;5.158;2023-02-07T03:43:09;12.57;;;5.55;;
65328;SDS011;51941;52.210;5.158;2023-02-07T03:45:39;11.23;;;5.50;;
65328;SDS011;51941;52.210;5.158;2023-02-07T03:48:07;9.63;;;5.32;;
65328;SDS011;51941;52.210;5.158;2023-02-07T03:50:34;11.10;;;5.95;;
65328;SDS011;51941;52.210;5.158;2023-02-07T03:53:03;16.88;;;5.93;;
65328;SDS011;51941;52.210;5.158;2023-02-07T03:55:30;11.30;;;5.90;;
65328;SDS011;51941;52.210;5.158;2023-02-07T03:57:58;16.33;;;7.30;;
65328;SDS011;51941;52.210;5.158;2023-02-07T04:00:25;22.35;;;9.95;;
65328;SDS011;51941;52.210;5.158;2023-02-07T04:02:52;13.18;;;6.90;;
65328;SDS011;51941;52.210;5.158;2023-02-07T04:05:18;12.20;;;6.60;;
65328;SDS011;51941;52.210;5.158;2023-02-07T04:07:46;11.80;;;6.05;;
65328;SDS011;51941;52.210;5.158;2023-02-07T04:10:14;10.48;;;5.47;;
65328;SDS011;51941;52.210;5.158;2023-02-07T04:12:41;13.35;;;6.53;;
65328;SDS011;51941;52.210;5.158;2023-02-07T04:15:08;14.63;;;8.05;;
65328;SDS011;51941;52.210;5.158;2023-02-07T04:17:35;12.23;;;6.07;;
65328;SDS011;51941;52.210;5.158;2023-02-07T04:20:02;12.25;;;6.93;;
65328;SDS011;51941;52.210;5.158;2023-02-07T04:22:30;10.65;;;6.30;;
65328;SDS011;51941;52.210;5.158;2023-02-07T04:24:57;13.55;;;5.55;;
65328;SDS011;51941;52.210;5.158;2023-02-07T04:27:25;16.00;;;6.20;;
65328;SDS011;51941;52.210;5.158;2023-02-07T04:29:52;7.60;;;4.60;;
65328;SDS011;51941;52.210;5.158;2023-02-07T04:32:18;9.23;;;4.97;;
65328;SDS011;51941;52.210;5.158;2023-02-07T04:34:45;10.90;;;4.88;;
65328;SDS011;51941;52.210;5.158;2023-02-07T04:37:12;13.82;;;6.22;;
65328;SDS011;51941;52.210;5.158;2023-02-07T04:39:39;11.93;;;6.88;;
65328;SDS011;51941;52.210;5.158;2023-02-07T04:42:06;10.02;;;6.43;;
65328;SDS011;51941;52.210;5.158;2023-02-07T04:44:34;14.68;;;6.60;;
65328;SDS011;51941;52.210;5.158;2023-02-07T04:47:01;13.25;;;6.45;;
65328;SDS011;51941;52.210;5.158;2023-02-07T04:49:28;13.52;;;7.03;;
65328;SDS011;51941;52.210;5.158;2023-02-07T04:51:55;10.18;;;6.05;;
65328;SDS011;51941;52.210;5.158;2023-02-07T04:54:22;16.00;;;7.63;;
65328;SDS011;51941;52.210;5.158;2023-02-07T04:56:49;16.25;;;7.75;;
65328;SDS011;51941;52.210;5.158;2023-02-07T04:59:15;18.27;;;7.55;;
65328;SDS011;51941;52.210;5.158;2023-02-07T05:01:43;18.38;;;7.63;;
65328;SDS011;51941;52.210;5.158;2023-02-07T05:04:10;16.08;;;7.60;;
65328;SDS011;51941;52.210;5.158;2023-02-07T05:06:37;12.07;;;7.72;;
65328;SDS011;51941;52.210;5.158;2023-02-07T05:09:04;12.95;;;6.45;;
65328;SDS011;51941;52.210;5.158;2023-02-07T05:11:30;10.77;;;6.50;;
65328;SDS011;51941;52.210;5.158;2023-02-07T05:13:57;16.13;;;6.70;;
65328;SDS011;51941;52.210;5.158;2023-02-07T05:16:24;12.40;;;6.20;;
65328;SDS011;51941;52.210;5.158;2023-02-07T05:18:52;18.95;;;8.40;;
65328;SDS011;51941;52.210;5.158;2023-02-07T05:21:19;16.52;;;8.05;;
65328;SDS011;51941;52.210;5.158;2023-02-07T05:23:46;23.10;;;9.68;;
65328;SDS011;51941;52.210;5.158;2023-02-07T05:26:13;18.75;;;9.35;;
65328;SDS011;51941;52.210;5.158;2023-02-07T05:28:41;17.90;;;8.48;;
65328;SDS011;51941;52.210;5.158;2023-02-07T05:31:08;14.90;;;7.60;;
65328;SDS011;51941;52.210;5.158;2023-02-07T05:33:35;18.77;;;7.22;;
65328;SDS011;51941;52.210;5.158;2023-02-07T05:36:02;13.65;;;6.80;;
65328;SDS011;51941;52.210;5.158;2023-02-07T05:38:30;14.10;;;7.32;;
65328;SDS011;51941;52.210;5.158;2023-02-07T05:40:57;12.02;;;7.07;;
65328;SDS011;51941;52.210;5.158;2023-02-07T05:43:23;14.13;;;6.82;;
65328;SDS011;51941;52.210;5.158;2023-02-07T05:45:50;12.73;;;6.97;;
65328;SDS011;51941;52.210;5.158;2023-02-07T05:48:17;12.18;;;6.50;;
65328;SDS011;51941;52.210;5.158;2023-02-07T05:50:44;15.38;;;7.88;;
65328;SDS011;51941;52.210;5.158;2023-02-07T05:53:12;16.75;;;7.13;;
65328;SDS011;51941;52.210;5.158;2023-02-07T05:55:40;11.60;;;7.13;;
65328;SDS011;51941;52.210;5.158;2023-02-07T05:58:06;14.10;;;7.13;;
65328;SDS011;51941;52.210;5.158;2023-02-07T06:00:33;14.02;;;7.70;;
65328;SDS011;51941;52.210;5.158;2023-02-07T06:03:00;16.13;;;8.10;;
65328;SDS011;51941;52.210;5.158;2023-02-07T06:05:27;16.70;;;8.15;;
65328;SDS011;51941;52.210;5.158;2023-02-07T06:07:55;18.45;;;9.20;;
65328;SDS011;51941;52.210;5.158;2023-02-07T06:10:23;23.38;;;10.90;;
65328;SDS011;51941;52.210;5.158;2023-02-07T06:12:50;20.52;;;10.18;;
65328;SDS011;51941;52.210;5.158;2023-02-07T06:15:17;22.27;;;11.38;;
65328;SDS011;51941;52.210;5.158;2023-02-07T06:17:44;28.05;;;11.65;;
65328;SDS011;51941;52.210;5.158;2023-02-07T06:20:11;23.05;;;11.15;;
65328;SDS011;51941;52.210;5.158;2023-02-07T06:22:37;20.85;;;10.68;;
65328;SDS011;51941;52.210;5.158;2023-02-07T06:25:05;20.80;;;10.27;;
65328;SDS011;51941;52.210;5.158;2023-02-07T06:27:37;19.92;;;10.07;;
65328;SDS011;51941;52.210;5.158;2023-02-07T06:30:05;20.45;;;10.65;;
65328;SDS011;51941;52.210;5.158;2023-02-07T06:32:33;25.77;;;11.13;;
65328;SDS011;51941;52.210;5.158;2023-02-07T06:35:00;18.48;;;9.00;;
65328;SDS011;51941;52.210;5.158;2023-02-07T06:37:26;18.95;;;9.70;;
65328;SDS011;51941;52.210;5.158;2023-02-07T06:39:53;21.05;;;10.55;;
65328;SDS011;51941;52.210;5.158;2023-02-07T06:42:20;23.52;;;10.73;;
65328;SDS011;51941;52.210;5.158;2023-02-07T06:44:48;20.63;;;9.98;;
65328;SDS011;51941;52.210;5.158;2023-02-07T06:47:15;16.95;;;10.18;;
65328;SDS011;51941;52.210;5.158;2023-02-07T06:49:46;19.45;;;10.70;;
65328;SDS011;51941;52.210;5.158;2023-02-07T06:52:12;23.00;;;10.30;;
65328;SDS011;51941;52.210;5.158;2023-02-07T06:54:39;17.92;;;10.00;;
65328;SDS011;51941;52.210;5.158;2023-02-07T06:57:06;16.23;;;9.02;;
65328;SDS011;51941;52.210;5.158;2023-02-07T06:59:33;21.52;;;10.18;;
65328;SDS011;51941;52.210;5.158;2023-02-07T07:02:01;20.90;;;10.95;;
65328;SDS011;51941;52.210;5.158;2023-02-07T07:04:28;24.23;;;11.90;;
65328;SDS011;51941;52.210;5.158;2023-02-07T07:06:55;23.10;;;11.63;;
65328;SDS011;51941;52.210;5.158;2023-02-07T07:09:22;28.50;;;13.48;;
65328;SDS011;51941;52.210;5.158;2023-02-07T07:11:49;20.15;;;10.88;;
65328;SDS011;51941;52.210;5.158;2023-02-07T07:14:16;18.13;;;10.10;;
65328;SDS011;51941;52.210;5.158;2023-02-07T07:16:43;19.95;;;10.40;;
65328;SDS011;51941;52.210;5.158;2023-02-07T07:19:11;18.60;;;10.50;;
65328;SDS011;51941;52.210;5.158;2023-02-07T07:21:38;25.40;;;12.15;;
65328;SDS011;51941;52.210;5.158;2023-02-07T07:24:05;23.58;;;11.40;;
65328;SDS011;51941;52.210;5.158;2023-02-07T07:26:32;25.08;;;12.38;;
65328;SDS011;51941;52.210;5.158;2023-02-07T07:28:59;28.63;;;12.90;;
65328;SDS011;51941;52.210;5.158;2023-02-07T07:31:26;23.70;;;12.27;;
65328;SDS011;51941;52.210;5.158;2023-02-07T07:33:53;21.70;;;11.65;;
65328;SDS011;51941;52.210;5.158;2023-02-07T07:36:21;24.80;;;12.63;;
65328;SDS011;51941;52.210;5.158;2023-02-07T07:38:48;23.70;;;13.10;;
65328;SDS011;51941;52.210;5.158;2023-02-07T07:41:15;34.33;;;15.00;;
65328;SDS011;51941;52.210;5.158;2023-02-07T07:43:42;29.50;;;13.88;;
65328;SDS011;51941;52.210;5.158;2023-02-07T07:46:08;24.17;;;12.70;;
65328;SDS011;51941;52.210;5.158;2023-02-07T07:48:35;29.60;;;13.13;;
65328;SDS011;51941;52.210;5.158;2023-02-07T07:51:02;25.77;;;12.82;;
65328;SDS011;51941;52.210;5.158;2023-02-07T07:53:30;32.58;;;15.40;;
65328;SDS011;51941;52.210;5.158;2023-02-07T07:55:57;24.92;;;13.80;;
65328;SDS011;51941;52.210;5.158;2023-02-07T07:58:24;36.95;;;17.75;;
65328;SDS011;51941;52.210;5.158;2023-02-07T08:00:53;32.03;;;15.52;;
65328;SDS011;51941;52.210;5.158;2023-02-07T08:03:20;32.22;;;15.35;;
65328;SDS011;51941;52.210;5.158;2023-02-07T08:05:47;27.55;;;13.93;;
65328;SDS011;51941;52.210;5.158;2023-02-07T08:08:14;26.70;;;13.77;;
65328;SDS011;51941;52.210;5.158;2023-02-07T08:10:45;28.58;;;13.40;;
65328;SDS011;51941;52.210;5.158;2023-02-07T08:13:13;28.73;;;14.55;;
65328;SDS011;51941;52.210;5.158;2023-02-07T08:15:41;27.58;;;13.15;;
65328;SDS011;51941;52.210;5.158;2023-02-07T08:18:08;22.08;;;12.98;;
65328;SDS011;51941;52.210;5.158;2023-02-07T08:20:35;24.67;;;12.75;;
65328;SDS011;51941;52.210;5.158;2023-02-07T08:23:01;25.48;;;12.85;;
65328;SDS011;51941;52.210;5.158;2023-02-07T08:25:28;23.85;;;12.82;;
65328;SDS011;51941;52.210;5.158;2023-02-07T08:27:57;30.90;;;15.35;;
65328;SDS011;51941;52.210;5.158;2023-02-07T08:30:24;33.40;;;15.57;;
65328;SDS011;51941;52.210;5.158;2023-02-07T08:32:51;29.33;;;15.63;;
65328;SDS011;51941;52.210;5.158;2023-02-07T08:35:19;28.48;;;15.30;;
65328;SDS011;51941;52.210;5.158;2023-02-07T08:37:47;29.48;;;15.20;;
65328;SDS011;51941;52.210;5.158;2023-02-07T08:40:14;29.38;;;15.13;;
65328;SDS011;51941;52.210;5.158;2023-02-07T08:42:41;25.45;;;14.35;;
65328;SDS011;51941;52.210;5.158;2023-02-07T08:45:10;26.13;;;13.13;;
65328;SDS011;51941;52.210;5.158;2023-02-07T08:47:37;30.77;;;16.15;;
65328;SDS011;51941;52.210;5.158;2023-02-07T08:50:04;29.95;;;15.50;;
65328;SDS011;51941;52.210;5.158;2023-02-07T08:52:32;27.95;;;14.82;;
65328;SDS011;51941;52.210;5.158;2023-02-07T08:54:59;33.35;;;15.98;;
65328;SDS011;51941;52.210;5.158;2023-02-07T08:57:26;28.40;;;14.50;;
65328;SDS011;51941;52.210;5.158;2023-02-07T08:59:53;27.75;;;13.65;;
65328;SDS011;51941;52.210;5.158;2023-02-07T09:02:21;25.95;;;13.20;;
65328;SDS011;51941;52.210;5.158;2023-02-07T09:04:48;22.58;;;12.18;;
65328;SDS011;51941;52.210;5.158;2023-02-07T09:07:16;27.30;;;14.10;;
65328;SDS011;51941;52.210;5.158;2023-02-07T09:09:44;25.73;;;12.90;;
65328;SDS011;51941;52.210;5.158;2023-02-07T09:12:11;22.15;;;12.13;;
65328;SDS011;51941;52.210;5.158;2023-02-07T09:14:38;24.40;;;13.23;;
65328;SDS011;51941;52.210;5.158;2023-02-07T09:17:06;22.67;;;12.82;;
65328;SDS011;51941;52.210;5.158;2023-02-07T09:19:34;23.15;;;12.15;;
65328;SDS011;51941;52.210;5.158;2023-02-07T09:22:01;20.45;;;11.00;;
65328;SDS011;51941;52.210;5.158;2023-02-07T09:24:29;20.95;;;10.95;;
65328;SDS011;51941;52.210;5.158;2023-02-07T09:26:55;22.42;;;10.95;;
65328;SDS011;51941;52.210;5.158;2023-02-07T09:29:22;22.23;;;11.02;;
65328;SDS011;51941;52.210;5.158;2023-02-07T09:31:49;26.52;;;12.60;;
65328;SDS011;51941;52.210;5.158;2023-02-07T09:34:16;21.92;;;12.15;;
65328;SDS011;51941;52.210;5.158;2023-02-07T09:36:45;30.17;;;13.40;;
65328;SDS011;51941;52.210;5.158;2023-02-07T09:39:14;23.30;;;11.48;;
65328;SDS011;51941;52.210;5.158;2023-02-07T09:41:42;22.52;;;12.15;;
65328;SDS011;51941;52.210;5.158;2023-02-07T09:44:17;21.10;;;11.15;;
65328;SDS011;51941;52.210;5.158;2023-02-07T09:46:52;19.30;;;10.38;;
65328;SDS011;51941;52.210;5.158;2023-02-07T09:49:29;32.15;;;11.63;;
65328;SDS011;51941;52.210;5.158;2023-02-07T09:52:02;27.63;;;13.10;;
65328;SDS011;51941;52.210;5.158;2023-02-07T09:54:32;21.58;;;11.00;;
65328;SDS011;51941;52.210;5.158;2023-02-07T09:57:05;15.98;;;8.98;;
65328;SDS011;51941;52.210;5.158;2023-02-07T09:59:40;26.50;;;10.80;;
65328;SDS011;51941;52.210;5.158;2023-02-07T10:02:14;17.75;;;9.30;;
65328;SDS011;51941;52.210;5.158;2023-02-07T10:04:46;19.92;;;10.52;;
65328;SDS011;51941;52.210;5.158;2023-02-07T10:07:16;21.88;;;11.88;;
65328;SDS011;51941;52.210;5.158;2023-02-07T10:09:44;24.50;;;11.45;;
65328;SDS011;51941;52.210;5.158;2023-02-07T10:12:18;19.63;;;10.00;;
65328;SDS011;51941;52.210;5.158;2023-02-07T10:15:06;17.20;;;9.70;;
65328;SDS011;51941;52.210;5.158;2023-02-07T10:17:47;18.50;;;10.18;;
65328;SDS011;51941;52.210;5.158;2023-02-07T10:20:30;19.13;;;8.93;;
65328;SDS011;51941;52.210;5.158;2023-02-07T10:23:07;19.48;;;8.90;;
65328;SDS011;51941;52.210;5.158;2023-02-07T10:25:45;16.65;;;9.18;;
65328;SDS011;51941;52.210;5.158;2023-02-07T10:28:28;13.13;;;8.23;;
65328;SDS011;51941;52.210;5.158;2023-02-07T10:31:16;18.45;;;9.40;;
65328;SDS011;51941;52.210;5.158;2023-02-07T10:33:46;19.20;;;8.82;;
65328;SDS011;51941;52.210;5.158;2023-02-07T10:36:14;17.10;;;8.70;;
65328;SDS011;51941;52.210;5.158;2023-02-07T10:38:44;19.95;;;8.38;;
65328;SDS011;51941;52.210;5.158;2023-02-07T10:41:19;14.40;;;7.65;;
65328;SDS011;51941;52.210;5.158;2023-02-07T10:43:51;14.45;;;8.18;;
65328;SDS011;51941;52.210;5.158;2023-02-07T10:46:18;17.75;;;9.00;;
65328;SDS011;51941;52.210;5.158;2023-02-07T10:48:47;15.53;;;8.07;;
65328;SDS011;51941;52.210;5.158;2023-02-07T10:51:18;17.65;;;8.70;;
65328;SDS011;51941;52.210;5.158;2023-02-07T10:53:49;16.52;;;9.05;;
65328;SDS011;51941;52.210;5.158;2023-02-07T10:56:27;15.10;;;8.02;;
65328;SDS011;51941;52.210;5.158;2023-02-07T10:58:56;16.25;;;8.55;;
65328;SDS011;51941;52.210;5.158;2023-02-07T11:01:25;17.50;;;8.57;;
65328;SDS011;51941;52.210;5.158;2023-02-07T11:03:53;18.77;;;8.90;;
65328;SDS011;51941;52.210;5.158;2023-02-07T11:06:25;14.15;;;7.65;;
65328;SDS011;51941;52.210;5.158;2023-02-07T11:11:48;13.35;;;7.60;;
65328;SDS011;51941;52.210;5.158;2023-02-07T11:14:16;18.60;;;10.30;;
65328;SDS011;51941;52.210;5.158;2023-02-07T11:16:45;19.33;;;10.45;;
65328;SDS011;51941;52.210;5.158;2023-02-07T11:19:14;19.25;;;9.10;;
65328;SDS011;51941;52.210;5.158;2023-02-07T11:21:44;15.27;;;7.93;;
65328;SDS011;51941;52.210;5.158;2023-02-07T11:24:14;12.75;;;7.28;;
65328;SDS011;51941;52.210;5.158;2023-02-07T11:26:51;14.13;;;7.45;;
65328;SDS011;51941;52.210;5.158;2023-02-07T11:29:21;14.30;;;7.63;;
65328;SDS011;51941;52.210;5.158;2023-02-07T11:31:50;13.97;;;6.80;;
65328;SDS011;51941;52.210;5.158;2023-02-07T11:34:30;14.90;;;6.95;;
65328;SDS011;51941;52.210;5.158;2023-02-07T11:37:22;12.75;;;6.78;;
65328;SDS011;51941;52.210;5.158;2023-02-07T11:39:52;8.77;;;4.93;;
65328;SDS011;51941;52.210;5.158;2023-02-07T11:42:23;11.20;;;6.60;;
65328;SDS011;51941;52.210;5.158;2023-02-07T11:44:51;13.82;;;7.72;;
65328;SDS011;51941;52.210;5.158;2023-02-07T11:47:19;9.98;;;6.38;;
65328;SDS011;51941;52.210;5.158;2023-02-07T11:49:49;14.10;;;7.18;;
65328;SDS011;51941;52.210;5.158;2023-02-07T11:52:18;10.63;;;6.53;;
65328;SDS011;51941;52.210;5.158;2023-02-07T11:54:47;14.32;;;7.72;;
65328;SDS011;51941;52.210;5.158;2023-02-07T11:57:18;12.32;;;6.10;;
65328;SDS011;51941;52.210;5.158;2023-02-07T11:59:49;13.20;;;6.35;;
65328;SDS011;51941;52.210;5.158;2023-02-07T12:02:27;11.25;;;6.00;;
65328;SDS011;51941;52.210;5.158;2023-02-07T12:05:07;13.18;;;6.80;;
65328;SDS011;51941;52.210;5.158;2023-02-07T12:07:41;13.00;;;6.53;;
65328;SDS011;51941;52.210;5.158;2023-02-07T12:10:12;12.55;;;6.47;;
65328;SDS011;51941;52.210;5.158;2023-02-07T12:12:41;10.55;;;6.43;;
65328;SDS011;51941;52.210;5.158;2023-02-07T12:15:15;11.00;;;5.45;;
65328;SDS011;51941;52.210;5.158;2023-02-07T12:17:52;9.20;;;5.35;;
65328;SDS011;51941;52.210;5.158;2023-02-07T12:20:23;10.45;;;5.20;;
65328;SDS011;51941;52.210;5.158;2023-02-07T12:22:53;7.53;;;4.82;;
65328;SDS011;51941;52.210;5.158;2023-02-07T12:25:24;9.27;;;4.35;;
65328;SDS011;51941;52.210;5.158;2023-02-07T12:27:55;9.07;;;5.78;;
65328;SDS011;51941;52.210;5.158;2023-02-07T12:30:32;8.85;;;5.50;;
65328;SDS011;51941;52.210;5.158;2023-02-07T12:33:07;10.18;;;6.07;;
65328;SDS011;51941;52.210;5.158;2023-02-07T12:35:39;9.23;;;5.35;;
65328;SDS011;51941;52.210;5.158;2023-02-07T12:38:14;12.60;;;6.78;;
65328;SDS011;51941;52.210;5.158;2023-02-07T12:40:43;11.73;;;6.35;;
65328;SDS011;51941;52.210;5.158;2023-02-07T12:43:13;11.43;;;6.53;;
65328;SDS011;51941;52.210;5.158;2023-02-07T12:45:50;10.88;;;5.85;;
65328;SDS011;51941;52.210;5.158;2023-02-07T12:48:28;10.25;;;5.82;;
65328;SDS011;51941;52.210;5.158;2023-02-07T12:51:08;10.50;;;6.03;;
65328;SDS011;51941;52.210;5.158;2023-02-07T12:53:46;8.40;;;4.80;;
65328;SDS011;51941;52.210;5.158;2023-02-07T12:56:27;8.80;;;5.43;;
65328;SDS011;51941;52.210;5.158;2023-02-07T12:59:07;10.13;;;6.20;;
65328;SDS011;51941;52.210;5.158;2023-02-07T13:01:41;9.20;;;5.32;;
65328;SDS011;51941;52.210;5.158;2023-02-07T13:04:22;7.80;;;4.63;;
65328;SDS011;51941;52.210;5.158;2023-02-07T13:07:09;6.73;;;4.43;;
65328;SDS011;51941;52.210;5.158;2023-02-07T13:09:48;7.88;;;4.28;;
65328;SDS011;51941;52.210;5.158;2023-02-07T13:12:21;7.40;;;4.63;;
65328;SDS011;51941;52.210;5.158;2023-02-07T13:14:56;7.03;;;4.28;;
65328;SDS011;51941;52.210;5.158;2023-02-07T13:17:35;6.68;;;4.35;;
65328;SDS011;51941;52.210;5.158;2023-02-07T13:20:09;6.80;;;4.60;;
65328;SDS011;51941;52.210;5.158;2023-02-07T13:22:48;6.93;;;4.43;;
65328;SDS011;51941;52.210;5.158;2023-02-07T13:25:20;8.55;;;4.53;;
65328;SDS011;51941;52.210;5.158;2023-02-07T13:27:50;7.90;;;4.78;;
65328;SDS011;51941;52.210;5.158;2023-02-07T13:30:20;9.48;;;4.80;;
65328;SDS011;51941;52.210;5.158;2023-02-07T13:32:48;6.75;;;4.72;;
65328;SDS011;51941;52.210;5.158;2023-02-07T13:35:17;7.10;;;4.90;;
65328;SDS011;51941;52.210;5.158;2023-02-07T13:40:17;7.15;;;4.65;;
65328;SDS011;51941;52.210;5.158;2023-02-07T13:42:53;7.80;;;4.30;;
65328;SDS011;51941;52.210;5.158;2023-02-07T13:45:31;6.75;;;4.07;;
65328;SDS011;51941;52.210;5.158;2023-02-07T13:48:08;6.25;;;3.90;;
65328;SDS011;51941;52.210;5.158;2023-02-07T13:50:45;9.15;;;5.22;;
65328;SDS011;51941;52.210;5.158;2023-02-07T13:53:27;6.30;;;4.10;;
65328;SDS011;51941;52.210;5.158;2023-02-07T13:56:07;5.78;;;3.70;;
65328;SDS011;51941;52.210;5.158;2023-02-07T13:58:55;7.93;;;4.22;;
65328;SDS011;51941;52.210;5.158;2023-02-07T14:01:49;6.53;;;3.67;;
65328;SDS011;51941;52.210;5.158;2023-02-07T14:04:20;6.75;;;4.38;;
65328;SDS011;51941;52.210;5.158;2023-02-07T14:06:55;5.22;;;3.75;;
65328;SDS011;51941;52.210;5.158;2023-02-07T14:09:28;6.57;;;4.03;;
65328;SDS011;51941;52.210;5.158;2023-02-07T14:12:00;5.45;;;3.63;;
65328;SDS011;51941;52.210;5.158;2023-02-07T14:14:29;5.00;;;3.22;;
65328;SDS011;51941;52.210;5.158;2023-02-07T14:16:57;7.35;;;4.28;;
65328;SDS011;51941;52.210;5.158;2023-02-07T14:22:31;8.88;;;4.15;;
65328;SDS011;51941;52.210;5.158;2023-02-07T14:25:36;7.15;;;4.43;;
65328;SDS011;51941;52.210;5.158;2023-02-07T14:36:41;4.43;;;3.45;;
65328;SDS011;51941;52.210;5.158;2023-02-07T14:39:27;5.43;;;2.83;;
65328;SDS011;51941;52.210;5.158;2023-02-07T14:42:00;4.47;;;2.97;;
65328;SDS011;51941;52.210;5.158;2023-02-07T14:44:36;3.78;;;2.90;;
65328;SDS011;51941;52.210;5.158;2023-02-07T14:47:06;3.97;;;2.85;;
65328;SDS011;51941;52.210;5.158;2023-02-07T14:49:41;7.25;;;4.38;;
65328;SDS011;51941;52.210;5.158;2023-02-07T14:52:11;5.47;;;4.18;;
65328;SDS011;51941;52.210;5.158;2023-02-07T14:54:42;7.22;;;4.55;;
65328;SDS011;51941;52.210;5.158;2023-02-07T14:57:17;5.75;;;3.90;;
65328;SDS011;51941;52.210;5.158;2023-02-07T14:59:54;6.10;;;3.70;;
65328;SDS011;51941;52.210;5.158;2023-02-07T15:02:28;6.55;;;3.60;;
65328;SDS011;51941;52.210;5.158;2023-02-07T15:05:10;4.43;;;3.15;;
65328;SDS011;51941;52.210;5.158;2023-02-07T15:07:43;4.93;;;3.15;;
65328;SDS011;51941;52.210;5.158;2023-02-07T15:10:18;4.05;;;2.90;;
65328;SDS011;51941;52.210;5.158;2023-02-07T15:12:47;4.72;;;3.28;;
65328;SDS011;51941;52.210;5.158;2023-02-07T15:15:17;3.70;;;2.70;;